createdAt,value
2017-12-12T00:00:10.994Z,832.18
2017-12-12T00:01:10.863Z,832.15
2017-12-12T00:02:10.734Z,832.11
2017-12-12T00:03:10.605Z,832.11
2017-12-12T00:04:10.473Z,832.21
2017-12-12T00:05:10.344Z,832.22
2017-12-12T00:06:10.217Z,832.19
2017-12-12T00:07:10.087Z,832.29
2017-12-12T00:08:09.953Z,832.33
2017-12-12T00:09:09.824Z,832.30
2017-12-12T00:10:09.691Z,832.34
2017-12-12T00:11:09.562Z,832.35
2017-12-12T00:12:09.431Z,832.40
2017-12-12T00:13:09.300Z,832.48
2017-12-12T00:14:09.170Z,832.50
2017-12-12T00:15:09.040Z,832.56
2017-12-12T00:16:08.910Z,832.57
2017-12-12T00:17:08.781Z,832.52
2017-12-12T00:18:08.650Z,832.50
2017-12-12T00:19:08.519Z,832.58
2017-12-12T00:20:08.389Z,832.69
2017-12-12T00:21:08.267Z,832.70
2017-12-12T00:22:08.127Z,832.73
2017-12-12T00:23:07.996Z,832.69
2017-12-12T00:24:07.868Z,832.61
2017-12-12T00:25:07.737Z,832.62
2017-12-12T00:26:07.607Z,832.69
2017-12-12T00:27:07.476Z,832.76
2017-12-12T00:28:07.346Z,832.72
2017-12-12T00:29:07.216Z,832.68
2017-12-12T00:30:07.086Z,832.63
2017-12-12T00:31:06.953Z,832.63
2017-12-12T00:32:06.830Z,832.66
2017-12-12T00:33:06.694Z,832.71
2017-12-12T00:34:06.565Z,832.70
2017-12-12T00:35:06.433Z,832.68
2017-12-12T00:36:06.303Z,832.74
2017-12-12T00:37:06.175Z,832.78
2017-12-12T00:38:06.042Z,832.76
2017-12-12T00:39:05.913Z,832.74
2017-12-12T00:40:05.783Z,832.73
2017-12-12T00:41:05.653Z,832.70
2017-12-12T00:42:05.521Z,832.70
2017-12-12T00:43:05.389Z,832.70
2017-12-12T00:44:05.260Z,832.71
2017-12-12T00:45:05.129Z,832.77
2017-12-12T00:46:04.997Z,832.84
2017-12-12T00:47:04.870Z,832.84
2017-12-12T00:48:04.738Z,832.92
2017-12-12T00:49:04.607Z,832.89
2017-12-12T00:50:04.479Z,832.85
2017-12-12T00:51:04.347Z,832.99
2017-12-12T00:52:04.217Z,833.10
2017-12-12T00:53:04.089Z,833.15
2017-12-12T00:54:03.956Z,833.12
2017-12-12T00:55:03.824Z,833.14
2017-12-12T00:56:03.694Z,833.05
2017-12-12T00:57:03.567Z,832.99
2017-12-12T00:58:03.436Z,833.01
2017-12-12T00:59:03.301Z,833.17
2017-12-12T01:00:03.176Z,833.31
2017-12-12T01:01:03.043Z,833.37
2017-12-12T01:02:02.913Z,833.29
2017-12-12T01:03:02.781Z,833.13
2017-12-12T01:04:02.658Z,833.07
2017-12-12T01:05:02.518Z,833.09
2017-12-12T01:06:02.391Z,833.23
2017-12-12T01:07:02.257Z,833.37
2017-12-12T01:08:02.127Z,833.44
2017-12-12T01:09:01.999Z,833.49
2017-12-12T01:10:01.864Z,833.62
2017-12-12T01:11:01.741Z,833.65
2017-12-12T01:12:01.602Z,833.69
2017-12-12T01:13:01.473Z,833.65
2017-12-12T01:14:01.342Z,833.69
2017-12-12T01:15:01.209Z,833.80
2017-12-12T01:16:01.080Z,833.84
2017-12-12T01:17:00.953Z,833.80
2017-12-12T01:18:00.819Z,833.73
2017-12-12T01:19:00.686Z,833.78
2017-12-12T01:20:00.554Z,833.94
2017-12-12T01:21:00.425Z,834.06
2017-12-12T01:22:00.353Z,833.99
2017-12-12T01:23:00.165Z,833.93
2017-12-12T01:24:00.031Z,833.95
2017-12-12T01:24:59.902Z,834.01
2017-12-12T01:25:59.773Z,834.00
2017-12-12T01:26:59.640Z,834.02
2017-12-12T01:27:59.513Z,834.12
2017-12-12T01:28:59.378Z,834.19
2017-12-12T01:29:59.251Z,834.21
2017-12-12T01:30:59.116Z,834.25
2017-12-12T01:31:58.986Z,834.24
2017-12-12T01:32:58.858Z,834.26
2017-12-12T01:33:58.728Z,834.29
2017-12-12T01:34:58.595Z,834.23
2017-12-12T01:35:58.463Z,834.27
2017-12-12T01:36:58.333Z,834.24
2017-12-12T01:37:58.201Z,834.17
2017-12-12T01:38:58.169Z,834.19
2017-12-12T01:39:57.942Z,834.26
2017-12-12T01:40:57.811Z,834.35
2017-12-12T01:41:57.704Z,834.35
2017-12-12T01:42:57.549Z,834.37
2017-12-12T01:43:57.418Z,834.45
2017-12-12T01:44:57.289Z,834.58
2017-12-12T01:45:57.157Z,834.72
2017-12-12T01:46:57.024Z,834.67
2017-12-12T01:47:56.897Z,834.67
2017-12-12T01:48:56.766Z,834.66
2017-12-12T01:49:56.636Z,834.72
2017-12-12T01:50:56.503Z,834.63
2017-12-12T01:51:56.373Z,834.59
2017-12-12T01:52:56.244Z,834.64
2017-12-12T01:53:56.111Z,834.67
2017-12-12T01:54:55.980Z,834.62
2017-12-12T01:55:55.850Z,834.63
2017-12-12T01:56:55.719Z,834.67
2017-12-12T01:57:55.588Z,834.79
2017-12-12T01:58:55.461Z,834.84
2017-12-12T01:59:55.329Z,834.84
2017-12-12T02:00:55.198Z,834.89
2017-12-12T02:01:55.069Z,834.87
2017-12-12T02:02:54.937Z,834.95
2017-12-12T02:03:54.805Z,834.96
2017-12-12T02:04:54.674Z,835.01
2017-12-12T02:05:54.587Z,835.04
2017-12-12T02:06:54.412Z,835.06
2017-12-12T02:07:54.289Z,835.11
2017-12-12T02:08:54.152Z,835.14
2017-12-12T02:09:54.021Z,835.20
2017-12-12T02:10:53.890Z,835.21
2017-12-12T02:11:53.762Z,835.16
2017-12-12T02:12:53.630Z,835.14
2017-12-12T02:13:53.500Z,835.17
2017-12-12T02:14:53.365Z,835.20
2017-12-12T02:15:53.238Z,835.27
2017-12-12T02:16:53.108Z,835.34
2017-12-12T02:17:52.976Z,835.37
2017-12-12T02:18:52.844Z,835.41
2017-12-12T02:19:52.716Z,835.45
2017-12-12T02:20:52.586Z,835.52
2017-12-12T02:21:52.455Z,835.55
2017-12-12T02:22:52.324Z,835.50
2017-12-12T02:23:52.192Z,835.52
2017-12-12T02:24:52.144Z,835.51
2017-12-12T02:25:51.933Z,835.58
2017-12-12T02:26:51.802Z,835.61
2017-12-12T02:27:51.669Z,835.62
2017-12-12T02:28:51.541Z,835.57
2017-12-12T02:29:51.410Z,835.50
2017-12-12T02:30:51.350Z,835.52
2017-12-12T02:31:51.147Z,835.52
2017-12-12T02:32:51.015Z,835.53
2017-12-12T02:33:50.890Z,835.56
2017-12-12T02:34:50.755Z,835.59
2017-12-12T02:35:50.628Z,835.62
2017-12-12T02:36:50.494Z,835.65
2017-12-12T02:37:50.365Z,835.74
2017-12-12T02:38:50.233Z,835.79
2017-12-12T02:39:50.101Z,835.85
2017-12-12T02:40:49.971Z,835.81
2017-12-12T02:41:49.841Z,835.77
2017-12-12T02:42:49.712Z,835.73
2017-12-12T02:43:49.579Z,835.72
2017-12-12T02:44:49.446Z,835.75
2017-12-12T02:45:49.318Z,835.71
2017-12-12T02:46:49.189Z,835.69
2017-12-12T02:47:49.057Z,835.77
2017-12-12T02:48:48.925Z,835.85
2017-12-12T02:49:48.794Z,835.91
2017-12-12T02:50:48.665Z,835.94
2017-12-12T02:51:48.534Z,835.93
2017-12-12T02:52:48.402Z,835.91
2017-12-12T02:53:48.275Z,835.85
2017-12-12T02:54:48.139Z,835.86
2017-12-12T02:55:48.012Z,835.91
2017-12-12T02:56:47.883Z,835.99
2017-12-12T02:57:47.749Z,836.02
2017-12-12T02:58:47.621Z,836.05
2017-12-12T02:59:47.487Z,836.02
2017-12-12T03:00:47.356Z,836.13
2017-12-12T03:01:47.252Z,836.22
2017-12-12T03:02:47.096Z,836.29
2017-12-12T03:03:46.969Z,836.23
2017-12-12T03:04:46.835Z,836.30
2017-12-12T03:05:46.704Z,836.34
2017-12-12T03:06:46.573Z,836.38
2017-12-12T03:07:46.443Z,836.46
2017-12-12T03:08:46.314Z,836.41
2017-12-12T03:09:46.181Z,836.41
2017-12-12T03:10:46.052Z,836.39
2017-12-12T03:11:45.920Z,836.36
2017-12-12T03:12:45.792Z,836.44
2017-12-12T03:13:45.659Z,836.40
2017-12-12T03:14:45.528Z,836.49
2017-12-12T03:15:45.399Z,836.50
2017-12-12T03:16:45.269Z,836.55
2017-12-12T03:17:45.136Z,836.52
2017-12-12T03:18:45.050Z,836.47
2017-12-12T03:19:44.876Z,836.46
2017-12-12T03:20:44.745Z,836.50
2017-12-12T03:21:44.624Z,836.62
2017-12-12T03:22:44.484Z,836.73
2017-12-12T03:23:44.353Z,836.81
2017-12-12T03:24:44.237Z,836.74
2017-12-12T03:25:44.118Z,836.66
2017-12-12T03:26:43.963Z,836.62
2017-12-12T03:27:43.831Z,836.58
2017-12-12T03:28:43.701Z,836.56
2017-12-12T03:29:43.571Z,836.54
2017-12-12T03:30:43.441Z,836.47
2017-12-12T03:31:43.310Z,836.51
2017-12-12T03:32:43.179Z,836.58
2017-12-12T03:33:43.049Z,836.61
2017-12-12T03:34:42.919Z,836.63
2017-12-12T03:35:42.787Z,836.65
2017-12-12T03:36:42.655Z,836.69
2017-12-12T03:37:42.529Z,836.69
2017-12-12T03:38:42.396Z,836.74
2017-12-12T03:39:42.265Z,836.74
2017-12-12T03:40:42.135Z,836.76
2017-12-12T03:41:42.005Z,836.84
2017-12-12T03:42:41.873Z,836.85
2017-12-12T03:43:41.742Z,836.90
2017-12-12T03:44:41.613Z,836.98
2017-12-12T03:45:41.480Z,837.02
2017-12-12T03:46:41.350Z,837.03
2017-12-12T03:47:41.220Z,836.98
2017-12-12T03:48:41.089Z,836.94
2017-12-12T03:49:40.961Z,836.94
2017-12-12T03:50:40.832Z,836.90
2017-12-12T03:51:40.696Z,836.94
2017-12-12T03:52:40.578Z,837.00
2017-12-12T03:53:40.436Z,837.07
2017-12-12T03:54:40.346Z,837.14
2017-12-12T03:55:40.174Z,837.11
2017-12-12T03:56:40.046Z,837.08
2017-12-12T03:57:39.912Z,836.99
2017-12-12T03:58:39.782Z,837.07
2017-12-12T03:59:39.651Z,837.20
2017-12-12T04:00:39.520Z,837.24
2017-12-12T04:01:39.388Z,837.24
2017-12-12T04:02:39.258Z,837.23
2017-12-12T04:03:39.125Z,837.22
2017-12-12T04:04:38.993Z,837.25
2017-12-12T04:05:38.863Z,837.25
2017-12-12T04:06:38.732Z,837.32
2017-12-12T04:07:38.602Z,837.37
2017-12-12T04:08:38.470Z,837.35
2017-12-12T04:09:38.341Z,837.41
2017-12-12T04:10:38.209Z,837.44
2017-12-12T04:11:38.076Z,837.35
2017-12-12T04:12:37.945Z,837.39
2017-12-12T04:13:37.814Z,837.41
2017-12-12T04:14:37.685Z,837.45
2017-12-12T04:15:37.552Z,837.44
2017-12-12T04:16:37.422Z,837.42
2017-12-12T04:17:37.293Z,837.37
2017-12-12T04:18:37.165Z,837.45
2017-12-12T04:19:37.029Z,837.42
2017-12-12T04:20:36.896Z,837.46
2017-12-12T04:21:36.768Z,837.50
2017-12-12T04:22:36.632Z,837.49
2017-12-12T04:23:36.505Z,837.49
2017-12-12T04:24:36.373Z,837.56
2017-12-12T04:25:36.244Z,837.57
2017-12-12T04:26:36.113Z,837.62
2017-12-12T04:27:35.979Z,837.62
2017-12-12T04:28:35.850Z,837.64
2017-12-12T04:29:35.719Z,837.70
2017-12-12T04:30:35.588Z,837.72
2017-12-12T04:31:35.455Z,837.77
2017-12-12T04:32:35.325Z,837.81
2017-12-12T04:33:35.196Z,837.79
2017-12-12T04:34:35.066Z,837.82
2017-12-12T04:35:34.932Z,837.82
2017-12-12T04:36:34.804Z,837.78
2017-12-12T04:37:34.671Z,837.75
2017-12-12T04:38:34.539Z,837.73
2017-12-12T04:39:34.410Z,837.75
2017-12-12T04:40:34.278Z,837.76
2017-12-12T04:41:34.152Z,837.77
2017-12-12T04:42:34.017Z,837.81
2017-12-12T04:43:33.888Z,837.80
2017-12-12T04:44:33.756Z,837.84
2017-12-12T04:45:33.628Z,837.79
2017-12-12T04:46:33.493Z,837.83
2017-12-12T04:47:33.364Z,837.86
2017-12-12T04:48:33.233Z,837.87
2017-12-12T04:49:33.103Z,837.94
2017-12-12T04:50:32.969Z,837.93
2017-12-12T04:51:32.838Z,837.94
2017-12-12T04:52:32.707Z,837.94
2017-12-12T04:53:32.578Z,837.98
2017-12-12T04:54:32.446Z,838.00
2017-12-12T04:55:32.320Z,838.02
2017-12-12T04:56:32.184Z,838.07
2017-12-12T04:57:32.057Z,838.08
2017-12-12T04:58:31.921Z,838.14
2017-12-12T04:59:31.798Z,838.21
2017-12-12T05:00:31.661Z,838.20
2017-12-12T05:01:31.529Z,838.21
2017-12-12T05:02:31.400Z,838.22
2017-12-12T05:03:31.269Z,838.19
2017-12-12T05:04:31.139Z,838.19
2017-12-12T05:05:31.009Z,838.24
2017-12-12T05:06:30.877Z,838.30
2017-12-12T05:07:30.744Z,838.35
2017-12-12T05:08:30.616Z,838.41
2017-12-12T05:09:30.482Z,838.43
2017-12-12T05:10:30.359Z,838.42
2017-12-12T05:11:30.222Z,838.40
2017-12-12T05:12:30.092Z,838.36
2017-12-12T05:13:29.958Z,838.42
2017-12-12T05:14:29.828Z,838.47
2017-12-12T05:15:29.699Z,838.47
2017-12-12T05:16:29.567Z,838.50
2017-12-12T05:17:29.435Z,838.56
2017-12-12T05:18:29.303Z,838.55
2017-12-12T05:19:29.176Z,838.56
2017-12-12T05:20:29.044Z,838.57
2017-12-12T05:21:28.912Z,838.59
2017-12-12T05:22:28.780Z,838.58
2017-12-12T05:23:28.651Z,838.62
2017-12-12T05:24:28.518Z,838.65
2017-12-12T05:25:28.389Z,838.66
2017-12-12T05:26:28.259Z,838.76
2017-12-12T05:27:28.125Z,838.81
2017-12-12T05:28:27.997Z,838.88
2017-12-12T05:29:27.866Z,838.88
2017-12-12T05:30:27.732Z,838.89
2017-12-12T05:31:27.605Z,838.88
2017-12-12T05:32:27.472Z,838.87
2017-12-12T05:33:27.342Z,838.91
2017-12-12T05:34:27.211Z,838.87
2017-12-12T05:35:27.085Z,838.95
2017-12-12T05:36:26.951Z,838.96
2017-12-12T05:37:26.827Z,838.98
2017-12-12T05:38:26.689Z,839.03
2017-12-12T05:39:26.556Z,839.09
2017-12-12T05:40:26.425Z,839.12
2017-12-12T05:41:26.294Z,839.17
2017-12-12T05:42:26.165Z,839.16
2017-12-12T05:43:26.031Z,839.19
2017-12-12T05:44:25.902Z,839.27
2017-12-12T05:45:25.773Z,839.32
2017-12-12T05:46:25.641Z,839.41
2017-12-12T05:47:25.517Z,839.46
2017-12-12T05:48:25.380Z,839.50
2017-12-12T05:49:25.248Z,839.50
2017-12-12T05:50:25.118Z,839.53
2017-12-12T05:51:24.987Z,839.57
2017-12-12T05:52:24.855Z,839.59
2017-12-12T05:53:24.725Z,839.58
2017-12-12T05:54:24.594Z,839.53
2017-12-12T05:55:24.461Z,839.52
2017-12-12T05:56:24.330Z,839.53
2017-12-12T05:57:24.202Z,839.56
2017-12-12T05:58:24.159Z,839.63
2017-12-12T05:59:23.938Z,839.68
2017-12-12T06:00:23.811Z,839.71
2017-12-12T06:01:23.677Z,839.75
2017-12-12T06:02:23.542Z,839.74
2017-12-12T06:03:23.414Z,839.80
2017-12-12T06:04:23.283Z,839.81
2017-12-12T06:05:23.152Z,839.84
2017-12-12T06:06:23.021Z,839.89
2017-12-12T06:07:22.888Z,839.90
2017-12-12T06:08:22.760Z,839.88
2017-12-12T06:09:22.630Z,839.92
2017-12-12T06:10:22.503Z,839.90
2017-12-12T06:11:22.365Z,839.86
2017-12-12T06:12:22.794Z,839.93
2017-12-12T06:13:22.106Z,839.97
2017-12-12T06:14:21.973Z,839.99
2017-12-12T06:15:21.843Z,839.99
2017-12-12T06:16:21.714Z,839.97
2017-12-12T06:17:21.582Z,839.99
2017-12-12T06:18:21.450Z,840.12
2017-12-12T06:19:21.319Z,840.16
2017-12-12T06:20:21.187Z,840.20
2017-12-12T06:21:21.057Z,840.17
2017-12-12T06:22:20.927Z,840.18
2017-12-12T06:23:20.793Z,840.12
2017-12-12T06:24:20.669Z,840.11
2017-12-12T06:25:20.537Z,840.11
2017-12-12T06:26:20.404Z,840.18
2017-12-12T06:27:20.275Z,840.20
2017-12-12T06:28:20.141Z,840.26
2017-12-12T06:29:20.020Z,840.30
2017-12-12T06:30:19.884Z,840.32
2017-12-12T06:31:19.752Z,840.32
2017-12-12T06:32:19.621Z,840.33
2017-12-12T06:33:19.488Z,840.33
2017-12-12T06:34:19.358Z,840.31
2017-12-12T06:35:19.227Z,840.33
2017-12-12T06:36:19.098Z,840.34
2017-12-12T06:37:19.015Z,840.39
2017-12-12T06:38:18.832Z,840.38
2017-12-12T06:39:18.722Z,840.37
2017-12-12T06:40:18.574Z,840.38
2017-12-12T06:41:18.444Z,840.35
2017-12-12T06:42:18.317Z,840.39
2017-12-12T06:43:18.184Z,840.46
2017-12-12T06:44:18.050Z,840.51
2017-12-12T06:45:17.922Z,840.58
2017-12-12T06:46:17.791Z,840.58
2017-12-12T06:47:17.660Z,840.53
2017-12-12T06:48:17.528Z,840.50
2017-12-12T06:49:17.400Z,840.55
2017-12-12T06:50:17.267Z,840.54
2017-12-12T06:51:17.138Z,840.61
2017-12-12T06:52:17.006Z,840.60
2017-12-12T06:53:16.877Z,840.61
2017-12-12T06:54:16.746Z,840.59
2017-12-12T06:55:16.614Z,840.61
2017-12-12T06:56:16.483Z,840.58
2017-12-12T06:57:16.353Z,840.61
2017-12-12T06:58:16.222Z,840.68
2017-12-12T06:59:16.093Z,840.72
2017-12-12T07:00:15.960Z,840.74
2017-12-12T07:01:15.829Z,840.82
2017-12-12T07:02:15.704Z,840.87
2017-12-12T07:03:15.571Z,840.91
2017-12-12T07:04:15.436Z,840.95
2017-12-12T07:05:15.313Z,840.95
2017-12-12T07:06:15.178Z,840.96
2017-12-12T07:07:15.045Z,840.99
2017-12-12T07:08:14.916Z,841.00
2017-12-12T07:09:14.786Z,841.02
2017-12-12T07:10:14.655Z,841.08
2017-12-12T07:11:14.521Z,841.07
2017-12-12T07:12:14.394Z,841.05
2017-12-12T07:13:14.268Z,841.07
2017-12-12T07:14:14.133Z,841.07
2017-12-12T07:15:14.002Z,841.03
2017-12-12T07:16:13.869Z,841.09
2017-12-12T07:17:13.741Z,841.12
2017-12-12T07:18:13.608Z,841.19
2017-12-12T07:19:13.480Z,841.18
2017-12-12T07:20:13.347Z,841.17
2017-12-12T07:21:13.220Z,841.20
2017-12-12T07:22:13.085Z,841.21
2017-12-12T07:23:12.955Z,841.28
2017-12-12T07:24:12.824Z,841.35
2017-12-12T07:25:12.694Z,841.37
2017-12-12T07:26:12.648Z,841.37
2017-12-12T07:27:12.437Z,841.44
2017-12-12T07:28:12.301Z,841.48
2017-12-12T07:29:12.171Z,841.54
2017-12-12T07:30:12.039Z,841.55
2017-12-12T07:31:11.909Z,841.56
2017-12-12T07:32:11.777Z,841.55
2017-12-12T07:33:11.648Z,841.56
2017-12-12T07:34:11.518Z,841.57
2017-12-12T07:35:11.389Z,841.63
2017-12-12T07:36:11.256Z,841.62
2017-12-12T07:37:11.126Z,841.60
2017-12-12T07:38:10.995Z,841.65
2017-12-12T07:39:10.863Z,841.66
2017-12-12T07:40:10.735Z,841.69
2017-12-12T07:41:10.601Z,841.67
2017-12-12T07:42:10.473Z,841.69
2017-12-12T07:43:10.342Z,841.69
2017-12-12T07:44:10.209Z,841.71
2017-12-12T07:45:10.079Z,841.78
2017-12-12T07:46:09.951Z,841.84
2017-12-12T07:47:09.816Z,841.88
2017-12-12T07:48:09.685Z,841.84
2017-12-12T07:49:09.561Z,841.84
2017-12-12T07:50:09.422Z,841.78
2017-12-12T07:51:09.291Z,841.75
2017-12-12T07:52:09.165Z,841.75
2017-12-12T07:53:09.035Z,841.87
2017-12-12T07:54:08.904Z,841.88
2017-12-12T07:55:08.770Z,841.92
2017-12-12T07:56:08.641Z,841.90
2017-12-12T07:57:08.510Z,841.92
2017-12-12T07:58:08.377Z,841.93
2017-12-12T07:59:08.246Z,841.93
2017-12-12T08:00:08.119Z,841.99
2017-12-12T08:01:07.985Z,842.03
2017-12-12T08:02:07.856Z,842.03
2017-12-12T08:03:07.725Z,842.07
2017-12-12T08:04:07.592Z,842.07
2017-12-12T08:05:07.462Z,842.09
2017-12-12T08:06:07.330Z,842.12
2017-12-12T08:07:07.202Z,842.09
2017-12-12T08:08:07.071Z,842.19
2017-12-12T08:09:06.939Z,842.20
2017-12-12T08:10:06.807Z,842.22
2017-12-12T08:11:06.693Z,842.23
2017-12-12T08:12:06.546Z,842.23
2017-12-12T08:13:06.426Z,842.21
2017-12-12T08:14:06.284Z,842.20
2017-12-12T08:15:06.152Z,842.21
2017-12-12T08:16:06.023Z,842.26
2017-12-12T08:17:05.896Z,842.32
2017-12-12T08:18:05.764Z,842.34
2017-12-12T08:19:05.632Z,842.37
2017-12-12T08:20:05.505Z,842.40
2017-12-12T08:21:05.373Z,842.40
2017-12-12T08:22:05.238Z,842.47
2017-12-12T08:23:05.110Z,842.50
2017-12-12T08:24:04.977Z,842.51
2017-12-12T08:25:04.850Z,842.57
2017-12-12T08:26:04.714Z,842.61
2017-12-12T08:27:04.585Z,842.63
2017-12-12T08:28:04.455Z,842.72
2017-12-12T08:29:04.327Z,842.69
2017-12-12T08:30:04.195Z,842.70
2017-12-12T08:31:04.063Z,842.72
2017-12-12T08:32:03.931Z,842.77
2017-12-12T08:33:03.801Z,842.79
2017-12-12T08:34:03.671Z,842.85
2017-12-12T08:35:03.541Z,842.93
2017-12-12T08:36:03.409Z,842.92
2017-12-12T08:37:03.323Z,842.96
2017-12-12T08:38:03.149Z,843.00
2017-12-12T08:39:03.017Z,843.01
2017-12-12T08:40:02.887Z,843.02
2017-12-12T08:41:02.755Z,842.97
2017-12-12T08:42:02.625Z,843.02
2017-12-12T08:43:02.494Z,843.05
2017-12-12T08:44:02.362Z,843.06
2017-12-12T08:45:02.232Z,843.07
2017-12-12T08:46:02.101Z,843.07
2017-12-12T08:47:01.974Z,843.13
2017-12-12T08:48:01.841Z,843.11
2017-12-12T08:49:01.709Z,843.07
2017-12-12T08:50:01.578Z,843.15
2017-12-12T08:51:01.446Z,843.16
2017-12-12T08:52:01.318Z,843.21
2017-12-12T08:53:01.190Z,843.22
2017-12-12T08:54:01.057Z,843.22
2017-12-12T08:55:00.926Z,843.21
2017-12-12T08:56:00.793Z,843.23
2017-12-12T08:57:00.665Z,843.26
2017-12-12T08:58:00.534Z,843.33
2017-12-12T08:59:00.403Z,843.27
2017-12-12T09:00:00.271Z,843.28
2017-12-12T09:01:00.142Z,843.35
2017-12-12T09:02:00.013Z,843.34
2017-12-12T09:02:59.880Z,843.32
2017-12-12T09:03:59.751Z,843.38
2017-12-12T09:04:59.619Z,843.36
2017-12-12T09:05:59.487Z,843.40
2017-12-12T09:06:59.354Z,843.45
2017-12-12T09:07:59.224Z,843.49
2017-12-12T09:08:59.095Z,843.54
2017-12-12T09:09:58.963Z,843.53
2017-12-12T09:10:58.836Z,843.54
2017-12-12T09:11:58.705Z,843.52
2017-12-12T09:12:58.570Z,843.56
2017-12-12T09:13:58.439Z,843.56
2017-12-12T09:14:58.309Z,843.63
2017-12-12T09:15:58.177Z,843.66
2017-12-12T09:16:58.048Z,843.72
2017-12-12T09:17:57.917Z,843.76
2017-12-12T09:18:57.786Z,843.76
2017-12-12T09:19:57.655Z,843.77
2017-12-12T09:20:57.523Z,843.74
2017-12-12T09:21:57.391Z,843.75
2017-12-12T09:22:57.263Z,843.76
2017-12-12T09:23:57.131Z,843.80
2017-12-12T09:24:56.999Z,843.84
2017-12-12T09:25:56.873Z,843.84
2017-12-12T09:26:56.736Z,843.84
2017-12-12T09:27:56.608Z,843.87
2017-12-12T09:28:56.476Z,843.90
2017-12-12T09:29:56.344Z,843.95
2017-12-12T09:30:56.216Z,843.97
2017-12-12T09:31:56.082Z,843.99
2017-12-12T09:32:55.954Z,843.97
2017-12-12T09:33:55.822Z,844.02
2017-12-12T09:34:55.690Z,844.06
2017-12-12T09:35:55.560Z,844.04
2017-12-12T09:36:55.430Z,844.10
2017-12-12T09:37:55.298Z,844.09
2017-12-12T09:38:55.167Z,844.09
2017-12-12T09:39:55.037Z,844.08
2017-12-12T09:40:54.906Z,844.07
2017-12-12T09:41:54.774Z,844.10
2017-12-12T09:42:54.643Z,844.05
2017-12-12T09:43:54.517Z,844.10
2017-12-12T09:44:54.383Z,844.08
2017-12-12T09:45:54.251Z,844.11
2017-12-12T09:46:54.123Z,844.10
2017-12-12T09:47:53.988Z,844.07
2017-12-12T09:48:53.860Z,844.10
2017-12-12T09:49:53.730Z,844.12
2017-12-12T09:50:53.597Z,844.15
2017-12-12T09:51:53.467Z,844.17
2017-12-12T09:52:53.337Z,844.13
2017-12-12T09:53:53.204Z,844.15
2017-12-12T09:54:53.172Z,844.11
2017-12-12T09:55:52.944Z,844.12
2017-12-12T09:56:52.813Z,844.15
2017-12-12T09:57:52.682Z,844.13
2017-12-12T09:58:52.549Z,844.12
2017-12-12T09:59:52.419Z,844.15
2017-12-12T10:00:52.288Z,844.16
2017-12-12T10:01:52.156Z,844.18
2017-12-12T10:02:52.026Z,844.22
2017-12-12T10:03:51.898Z,844.26
2017-12-12T10:04:51.765Z,844.27
2017-12-12T10:05:51.634Z,844.29
2017-12-12T10:06:51.503Z,844.33
2017-12-12T10:07:51.372Z,844.33
2017-12-12T10:08:51.241Z,844.30
2017-12-12T10:09:51.112Z,844.30
2017-12-12T10:10:50.980Z,844.31
2017-12-12T10:11:50.851Z,844.37
2017-12-12T10:12:50.719Z,844.33
2017-12-12T10:13:50.587Z,844.37
2017-12-12T10:14:50.458Z,844.38
2017-12-12T10:15:50.330Z,844.39
2017-12-12T10:16:50.197Z,844.43
2017-12-12T10:17:50.065Z,844.38
2017-12-12T10:18:49.942Z,844.40
2017-12-12T10:19:49.804Z,844.41
2017-12-12T10:20:49.676Z,844.41
2017-12-12T10:21:49.544Z,844.38
2017-12-12T10:22:49.415Z,844.38
2017-12-12T10:23:49.287Z,844.35
2017-12-12T10:24:49.153Z,844.37
2017-12-12T10:25:49.022Z,844.37
2017-12-12T10:26:48.890Z,844.38
2017-12-12T10:27:48.760Z,844.33
2017-12-12T10:28:48.629Z,844.34
2017-12-12T10:29:48.499Z,844.33
2017-12-12T10:30:48.367Z,844.32
2017-12-12T10:31:48.350Z,844.28
2017-12-12T10:32:48.108Z,844.33
2017-12-12T10:33:47.978Z,844.34
2017-12-12T10:34:47.845Z,844.35
2017-12-12T10:35:47.719Z,844.32
2017-12-12T10:36:47.586Z,844.33
2017-12-12T10:37:47.454Z,844.30
2017-12-12T10:38:47.326Z,844.31
2017-12-12T10:39:47.194Z,844.32
2017-12-12T10:40:47.065Z,844.35
2017-12-12T10:41:46.931Z,844.35
2017-12-12T10:42:46.803Z,844.38
2017-12-12T10:43:46.673Z,844.36
2017-12-12T10:44:46.540Z,844.36
2017-12-12T10:45:46.411Z,844.34
2017-12-12T10:46:46.278Z,844.34
2017-12-12T10:47:46.147Z,844.36
2017-12-12T10:48:46.019Z,844.40
2017-12-12T10:49:45.886Z,844.41
2017-12-12T10:50:45.756Z,844.41
2017-12-12T10:51:45.629Z,844.47
2017-12-12T10:52:45.496Z,844.49
2017-12-12T10:53:45.364Z,844.52
2017-12-12T10:54:45.232Z,844.49
2017-12-12T10:55:45.104Z,844.45
2017-12-12T10:56:44.971Z,844.47
2017-12-12T10:57:44.841Z,844.51
2017-12-12T10:58:44.709Z,844.51
2017-12-12T10:59:44.580Z,844.50
2017-12-12T11:00:44.449Z,844.53
2017-12-12T11:01:44.376Z,844.56
2017-12-12T11:02:44.189Z,844.57
2017-12-12T11:03:44.057Z,844.57
2017-12-12T11:04:43.923Z,844.60
2017-12-12T11:05:43.794Z,844.58
2017-12-12T11:06:43.659Z,844.58
2017-12-12T11:07:43.527Z,844.58
2017-12-12T11:08:43.400Z,844.64
2017-12-12T11:09:43.266Z,844.64
2017-12-12T11:10:43.136Z,844.68
2017-12-12T11:11:43.005Z,844.67
2017-12-12T11:12:42.874Z,844.67
2017-12-12T11:13:42.742Z,844.68
2017-12-12T11:14:42.612Z,844.63
2017-12-12T11:15:42.478Z,844.59
2017-12-12T11:16:42.352Z,844.60
2017-12-12T11:17:42.217Z,844.64
2017-12-12T11:18:42.086Z,844.65
2017-12-12T11:19:41.951Z,844.68
2017-12-12T11:20:41.821Z,844.72
2017-12-12T11:21:41.690Z,844.76
2017-12-12T11:22:41.560Z,844.75
2017-12-12T11:23:41.430Z,844.76
2017-12-12T11:24:41.297Z,844.76
2017-12-12T11:25:41.163Z,844.74
2017-12-12T11:26:41.034Z,844.75
2017-12-12T11:27:40.899Z,844.76
2017-12-12T11:28:40.794Z,844.80
2017-12-12T11:29:40.641Z,844.79
2017-12-12T11:30:40.508Z,844.78
2017-12-12T11:31:40.376Z,844.79
2017-12-12T11:32:40.246Z,844.82
2017-12-12T11:33:40.279Z,844.84
2017-12-12T11:34:39.981Z,844.87
2017-12-12T11:35:39.851Z,844.87
2017-12-12T11:36:39.721Z,844.86
2017-12-12T11:37:39.630Z,844.85
2017-12-12T11:38:39.456Z,844.88
2017-12-12T11:39:39.328Z,844.84
2017-12-12T11:40:39.194Z,844.85
2017-12-12T11:41:39.060Z,844.87
2017-12-12T11:42:38.930Z,844.82
2017-12-12T11:43:38.800Z,844.84
2017-12-12T11:44:38.669Z,844.88
2017-12-12T11:45:38.538Z,844.91
2017-12-12T11:46:38.405Z,844.90
2017-12-12T11:47:38.276Z,844.92
2017-12-12T11:48:38.162Z,844.91
2017-12-12T11:49:38.012Z,844.92
2017-12-12T11:50:37.883Z,844.92
2017-12-12T11:51:37.749Z,844.87
2017-12-12T11:52:37.618Z,844.86
2017-12-12T11:53:37.485Z,844.92
2017-12-12T11:54:37.353Z,844.90
2017-12-12T11:55:37.231Z,844.95
2017-12-12T11:56:37.092Z,844.95
2017-12-12T11:57:36.959Z,844.96
2017-12-12T11:58:36.826Z,844.93
2017-12-12T11:59:36.698Z,844.94
2017-12-12T12:00:36.565Z,844.97
2017-12-12T12:01:36.434Z,844.98
2017-12-12T12:02:36.303Z,845.01
2017-12-12T12:03:36.169Z,845.04
2017-12-12T12:04:36.039Z,845.01
2017-12-12T12:05:35.908Z,845.00
2017-12-12T12:06:35.775Z,844.98
2017-12-12T12:07:35.645Z,844.99
2017-12-12T12:08:35.513Z,844.98
2017-12-12T12:09:35.381Z,844.97
2017-12-12T12:10:35.257Z,844.96
2017-12-12T12:11:35.116Z,844.96
2017-12-12T12:12:34.990Z,845.02
2017-12-12T12:13:34.853Z,845.02
2017-12-12T12:14:34.724Z,845.03
2017-12-12T12:15:34.590Z,845.00
2017-12-12T12:16:34.460Z,844.97
2017-12-12T12:17:34.328Z,844.97
2017-12-12T12:18:34.195Z,844.97
2017-12-12T12:19:34.069Z,844.98
2017-12-12T12:20:33.933Z,845.00
2017-12-12T12:21:33.802Z,845.05
2017-12-12T12:22:33.670Z,845.06
2017-12-12T12:23:33.541Z,845.07
2017-12-12T12:24:33.412Z,845.04
2017-12-12T12:25:33.278Z,845.05
2017-12-12T12:26:33.147Z,845.01